createdAt,value
2023-02-14T00:01:09.602Z,15.48
2023-02-14T00:03:42.454Z,15.52
2023-02-14T00:06:15.568Z,15.68
2023-02-14T00:08:48.356Z,14.55
2023-02-14T00:11:21.639Z,16.60
2023-02-14T00:14:13.549Z,15.45
2023-02-14T00:16:46.360Z,15.65
2023-02-14T00:19:20.562Z,16.63
2023-02-14T00:21:53.597Z,15.77
2023-02-14T00:24:27.890Z,16.42
2023-02-14T00:27:00.764Z,15.65
2023-02-14T00:29:35.319Z,15.40
2023-02-14T00:32:08.115Z,15.65
2023-02-14T00:34:41.773Z,14.55
2023-02-14T00:37:16.457Z,16.08
2023-02-14T00:39:49.288Z,15.70
2023-02-14T00:42:22.404Z,16.60
2023-02-14T00:44:56.570Z,16.42
2023-02-14T00:47:29.493Z,16.20
2023-02-14T00:50:04.265Z,15.77
2023-02-14T00:52:36.990Z,16.42
2023-02-14T00:55:09.755Z,17.25
2023-02-14T00:57:42.465Z,15.75
2023-02-14T01:00:17.472Z,16.00
2023-02-14T01:02:50.352Z,18.77
2023-02-14T01:05:23.170Z,18.83
2023-02-14T01:07:56.026Z,17.20
2023-02-14T01:10:28.914Z,15.63
2023-02-14T01:13:01.678Z,16.65
2023-02-14T01:15:40.249Z,16.50
2023-02-14T01:18:13.684Z,17.00
2023-02-14T01:20:47.114Z,17.30
2023-02-14T01:23:19.897Z,16.55
2023-02-14T01:25:54.904Z,17.40
2023-02-14T01:28:27.714Z,16.63
2023-02-14T01:31:08.911Z,17.63
2023-02-14T01:33:43.436Z,17.98
2023-02-14T01:36:17.990Z,16.92
2023-02-14T01:38:52.899Z,16.02
2023-02-14T01:41:27.525Z,18.08
2023-02-14T01:44:02.700Z,17.20
2023-02-14T01:46:38.691Z,16.50
2023-02-14T01:49:15.558Z,16.50
2023-02-14T01:51:53.939Z,16.58
2023-02-14T01:54:30.351Z,18.45
2023-02-14T01:57:09.215Z,17.33
2023-02-14T01:59:47.191Z,20.30
2023-02-14T02:02:23.894Z,16.13
2023-02-14T02:04:57.458Z,17.77
2023-02-14T02:07:31.820Z,17.13
2023-02-14T02:10:06.850Z,18.40
2023-02-14T02:12:40.048Z,16.92
2023-02-14T02:15:13.131Z,16.83
2023-02-14T02:17:58.728Z,18.00
2023-02-14T02:21:01.700Z,17.70
2023-02-14T02:24:05.654Z,17.70
2023-02-14T02:27:16.086Z,17.48
2023-02-14T02:30:32.917Z,15.75
2023-02-14T02:33:46.931Z,16.42
2023-02-14T02:36:44.985Z,16.73
2023-02-14T02:39:30.457Z,16.10
2023-02-14T02:42:11.020Z,16.48
2023-02-14T02:44:52.896Z,16.88
2023-02-14T02:47:31.826Z,16.95
2023-02-14T02:50:30.609Z,17.05
2023-02-14T02:53:15.264Z,17.67
2023-02-14T02:56:12.867Z,17.70
2023-02-14T02:58:52.862Z,19.08
2023-02-14T03:01:32.888Z,17.02
2023-02-14T03:04:27.009Z,16.80
2023-02-14T03:07:00.822Z,17.80
2023-02-14T03:09:58.096Z,18.65
2023-02-14T03:12:55.668Z,19.30
2023-02-14T03:15:40.163Z,18.70
2023-02-14T03:18:47.906Z,18.17
2023-02-14T03:21:29.715Z,19.35
2023-02-14T03:24:10.790Z,20.65
2023-02-14T03:26:50.492Z,19.55
2023-02-14T03:29:32.378Z,19.02
2023-02-14T03:32:15.528Z,20.13
2023-02-14T03:34:55.271Z,20.13
2023-02-14T03:37:34.187Z,18.38
2023-02-14T03:40:12.046Z,19.67
2023-02-14T03:42:51.511Z,17.63
2023-02-14T03:45:33.387Z,18.90
2023-02-14T03:48:10.575Z,18.48
2023-02-14T03:50:48.859Z,17.08
2023-02-14T03:53:24.867Z,18.20
2023-02-14T03:56:04.603Z,18.10
2023-02-14T03:58:41.783Z,18.92
2023-02-14T04:01:20.581Z,18.15
2023-02-14T04:03:58.474Z,17.40
2023-02-14T04:06:31.648Z,17.85
2023-02-14T04:09:05.285Z,18.27
2023-02-14T04:11:40.448Z,17.85
2023-02-14T04:14:15.017Z,18.75
2023-02-14T04:17:05.568Z,17.55
2023-02-14T04:19:39.845Z,17.90
2023-02-14T04:22:12.614Z,17.25
2023-02-14T04:24:45.821Z,18.48
2023-02-14T04:27:18.608Z,17.13
2023-02-14T04:29:52.787Z,17.83
2023-02-14T04:32:25.622Z,18.17
2023-02-14T04:34:58.468Z,17.63
2023-02-14T04:37:31.241Z,17.60
2023-02-14T04:40:04.577Z,17.75
2023-02-14T04:42:37.304Z,17.30
2023-02-14T04:45:12.010Z,18.50
2023-02-14T04:47:47.812Z,17.58
2023-02-14T04:50:20.776Z,15.73
2023-02-14T04:52:53.946Z,16.95
2023-02-14T04:55:26.854Z,16.15
2023-02-14T04:57:59.594Z,17.40
2023-02-14T05:00:33.843Z,16.58
2023-02-14T05:03:06.615Z,15.50
2023-02-14T05:05:39.384Z,17.35
2023-02-14T05:08:12.186Z,16.02
2023-02-14T05:10:45.019Z,18.23
2023-02-14T05:13:18.133Z,17.08
2023-02-14T05:15:52.257Z,17.17
2023-02-14T05:18:25.241Z,16.00
2023-02-14T05:20:58.392Z,16.77
2023-02-14T05:23:56.889Z,16.95
2023-02-14T05:26:32.556Z,16.92
2023-02-14T05:29:06.060Z,17.48
2023-02-14T05:32:27.147Z,16.52
2023-02-14T05:35:35.941Z,19.40
2023-02-14T05:38:08.936Z,17.25
2023-02-14T05:40:45.506Z,18.85
2023-02-14T05:43:18.289Z,19.25
2023-02-14T05:45:51.393Z,17.10
2023-02-14T05:48:25.805Z,17.48
2023-02-14T05:50:58.962Z,16.40
2023-02-14T05:53:31.950Z,16.73
2023-02-14T05:56:05.691Z,17.60
2023-02-14T05:58:38.489Z,17.38
2023-02-14T06:01:11.345Z,16.30
2023-02-14T06:03:45.570Z,17.85
2023-02-14T06:06:18.381Z,17.90
2023-02-14T06:08:51.174Z,19.65
2023-02-14T06:11:23.955Z,18.45
2023-02-14T06:13:56.917Z,17.70
2023-02-14T06:16:29.727Z,15.90
2023-02-14T06:19:03.988Z,18.13
2023-02-14T06:21:36.995Z,17.67
2023-02-14T06:24:10.168Z,16.20
2023-02-14T06:26:43.177Z,17.10
2023-02-14T06:29:17.991Z,17.40
2023-02-14T06:31:50.822Z,16.20
2023-02-14T06:34:24.999Z,18.00
2023-02-14T06:36:57.734Z,16.70
2023-02-14T06:39:30.991Z,17.65
2023-02-14T06:42:03.716Z,18.45
2023-02-14T06:44:36.503Z,17.30
2023-02-14T06:47:09.458Z,15.98
2023-02-14T06:49:43.600Z,17.38
2023-02-14T06:52:16.378Z,16.75
2023-02-14T06:54:49.100Z,18.08
2023-02-14T06:57:21.923Z,17.15
2023-02-14T06:59:54.813Z,16.92
2023-02-14T07:02:27.526Z,16.27
2023-02-14T07:05:01.671Z,16.20
2023-02-14T07:07:34.455Z,16.98
2023-02-14T07:10:08.453Z,15.05
2023-02-14T07:12:41.250Z,15.23
2023-02-14T07:15:17.253Z,17.23
2023-02-14T07:17:50.067Z,15.93
2023-02-14T07:20:24.335Z,15.35
2023-02-14T07:22:57.072Z,15.60
2023-02-14T07:25:29.954Z,17.02
2023-02-14T07:28:04.744Z,17.45
2023-02-14T07:30:37.786Z,15.63
2023-02-14T07:33:10.773Z,15.95
2023-02-14T07:35:45.036Z,17.52
2023-02-14T07:38:18.038Z,16.35
2023-02-14T07:40:50.950Z,16.45
2023-02-14T07:43:24.345Z,16.30
2023-02-14T07:45:57.513Z,15.55
2023-02-14T07:48:32.535Z,15.52
2023-02-14T07:51:08.201Z,17.30
2023-02-14T07:53:41.167Z,16.15
2023-02-14T07:56:13.998Z,15.93
2023-02-14T07:58:47.053Z,15.55
2023-02-14T08:01:21.022Z,13.98
2023-02-14T08:03:53.959Z,15.75
2023-02-14T08:06:28.190Z,15.70
2023-02-14T08:09:01.400Z,13.98
2023-02-14T08:11:51.316Z,14.32
2023-02-14T08:14:24.346Z,14.57
2023-02-14T08:16:57.100Z,16.10
2023-02-14T08:19:30.034Z,14.40
2023-02-14T08:22:04.253Z,14.48
2023-02-14T08:24:37.441Z,13.90
2023-02-14T08:27:10.691Z,14.82
2023-02-14T08:29:43.369Z,15.52
2023-02-14T08:32:16.250Z,15.23
2023-02-14T08:34:49.111Z,14.88
2023-02-14T08:37:23.232Z,15.00
2023-02-14T08:39:56.050Z,13.77
2023-02-14T08:42:29.931Z,14.20
2023-02-14T08:45:02.845Z,14.95
2023-02-14T08:47:38.196Z,14.63
2023-02-14T08:50:13.451Z,15.48
2023-02-14T08:52:47.602Z,14.00
2023-02-14T08:55:20.369Z,14.18
2023-02-14T08:57:53.104Z,15.25
2023-02-14T09:00:26.037Z,14.60
2023-02-14T09:02:59.196Z,14.25
2023-02-14T09:05:32.025Z,12.27
2023-02-14T09:08:06.435Z,14.73
2023-02-14T09:10:39.253Z,13.30
2023-02-14T09:13:12.029Z,14.80
2023-02-14T09:15:44.821Z,15.43
2023-02-14T09:18:17.575Z,14.52
2023-02-14T09:20:50.303Z,14.35
2023-02-14T09:23:24.401Z,13.52
2023-02-14T09:26:02.174Z,15.07
2023-02-14T09:28:35.398Z,13.80
2023-02-14T09:31:13.336Z,13.85
2023-02-14T09:33:47.203Z,13.10
2023-02-14T09:36:20.018Z,14.45
2023-02-14T09:38:54.181Z,12.80
2023-02-14T09:41:49.892Z,14.90
2023-02-14T09:44:29.265Z,13.48
2023-02-14T09:47:08.215Z,13.73
2023-02-14T09:49:41.362Z,15.02
2023-02-14T09:52:17.090Z,14.68
2023-02-14T09:54:57.720Z,12.60
2023-02-14T09:57:41.189Z,12.70
2023-02-14T10:00:30.611Z,13.85
2023-02-14T10:03:17.351Z,13.38
2023-02-14T10:06:00.296Z,12.10
2023-02-14T10:08:48.212Z,12.50
2023-02-14T10:11:25.643Z,14.50
2023-02-14T10:14:05.125Z,14.10
2023-02-14T10:16:43.675Z,13.80
2023-02-14T10:19:23.245Z,13.90
2023-02-14T10:22:00.544Z,13.07
2023-02-14T10:24:37.823Z,12.35
2023-02-14T10:27:18.349Z,13.40
2023-02-14T10:29:51.342Z,13.95
2023-02-14T10:32:31.759Z,12.18
2023-02-14T10:37:51.929Z,13.82
2023-02-14T10:40:42.070Z,12.57
2023-02-14T10:43:27.203Z,12.88
2023-02-14T10:46:08.927Z,13.02
2023-02-14T10:48:56.213Z,13.30
2023-02-14T10:51:36.368Z,12.98
2023-02-14T10:54:19.687Z,12.45
2023-02-14T10:56:58.712Z,12.80
2023-02-14T10:59:39.804Z,12.13
2023-02-14T11:02:16.862Z,12.63
2023-02-14T11:04:50.795Z,12.52
2023-02-14T11:07:23.855Z,12.52
2023-02-14T11:09:57.174Z,13.68
2023-02-14T11:12:34.932Z,12.95
2023-02-14T11:15:24.142Z,13.40
2023-02-14T11:18:14.293Z,14.40
2023-02-14T11:21:01.591Z,12.55
2023-02-14T11:23:37.647Z,10.88
2023-02-14T11:26:17.493Z,13.80
2023-02-14T11:28:55.066Z,14.52
2023-02-14T11:31:32.607Z,14.02
2023-02-14T11:34:07.749Z,13.68
2023-02-14T11:36:43.002Z,12.68
2023-02-14T11:39:28.897Z,13.07
2023-02-14T11:42:05.069Z,13.27
2023-02-14T11:44:43.899Z,13.27
2023-02-14T11:47:25.570Z,12.25
2023-02-14T11:50:01.009Z,13.10
2023-02-14T11:52:40.515Z,12.40
2023-02-14T11:55:25.619Z,12.80
2023-02-14T11:57:59.185Z,12.93
2023-02-14T12:00:33.785Z,14.48
2023-02-14T12:03:08.284Z,12.38
2023-02-14T12:05:48.687Z,14.02
2023-02-14T12:11:06.479Z,12.18
2023-02-14T12:13:39.376Z,12.35
2023-02-14T12:16:23.174Z,14.32
2023-02-14T12:19:03.628Z,12.95
2023-02-14T12:24:26.931Z,12.77
2023-02-14T12:27:07.216Z,12.18
2023-02-14T12:29:43.826Z,12.02
2023-02-14T12:32:22.685Z,12.80
2023-02-14T12:35:03.044Z,12.93
2023-02-14T12:37:50.841Z,12.02
2023-02-14T12:40:38.154Z,12.50
2023-02-14T12:43:26.632Z,11.48
2023-02-14T12:46:21.131Z,11.40
2023-02-14T12:49:12.635Z,11.57
2023-02-14T12:51:53.364Z,12.43
2023-02-14T12:54:41.497Z,12.13
2023-02-14T12:57:32.989Z,12.73
2023-02-14T13:00:19.572Z,11.52
2023-02-14T13:03:17.332Z,12.30
2023-02-14T13:05:59.457Z,11.90
2023-02-14T13:09:01.402Z,11.98
2023-02-14T13:11:40.950Z,13.05
2023-02-14T13:14:32.053Z,13.03
2023-02-14T13:17:11.886Z,11.18
2023-02-14T13:19:55.218Z,12.30
2023-02-14T13:22:30.954Z,11.75
2023-02-14T13:25:11.334Z,11.07
2023-02-14T13:27:44.227Z,11.90
2023-02-14T13:30:25.606Z,12.93
2023-02-14T13:33:02.972Z,12.02
2023-02-14T13:35:36.250Z,11.95
2023-02-14T13:38:15.068Z,12.07
2023-02-14T13:40:49.974Z,12.07
2023-02-14T13:43:48.630Z,12.13
2023-02-14T13:46:37.880Z,11.57
2023-02-14T13:49:26.172Z,11.23
2023-02-14T13:52:02.800Z,10.95
2023-02-14T13:54:45.099Z,11.82
2023-02-14T13:57:34.332Z,12.05
2023-02-14T14:00:38.553Z,12.45
2023-02-14T14:03:15.642Z,12.15
2023-02-14T14:06:01.703Z,11.52
2023-02-14T14:08:40.713Z,11.75
2023-02-14T14:11:59.599Z,11.73
2023-02-14T14:14:39.930Z,11.02
2023-02-14T14:19:57.910Z,11.95
2023-02-14T14:22:30.977Z,10.63
2023-02-14T14:25:08.368Z,11.75
2023-02-14T14:27:45.536Z,12.88
2023-02-14T14:30:24.928Z,12.15
2023-02-14T14:33:13.178Z,12.82
2023-02-14T14:35:53.839Z,12.35
2023-02-14T14:38:27.958Z,12.10
2023-02-14T14:41:01.728Z,11.30
2023-02-14T14:43:37.179Z,12.50
2023-02-14T14:46:14.195Z,12.18
2023-02-14T14:48:50.080Z,12.18
2023-02-14T14:51:28.790Z,12.05
2023-02-14T14:54:04.651Z,12.93
2023-02-14T14:56:46.952Z,12.35
2023-02-14T14:59:28.688Z,13.77
2023-02-14T15:02:03.470Z,13.65
2023-02-14T15:04:37.075Z,11.75
2023-02-14T15:07:23.928Z,12.50
2023-02-14T15:09:56.768Z,12.40
2023-02-14T15:12:48.322Z,12.60
2023-02-14T15:15:21.424Z,12.02
2023-02-14T15:17:56.890Z,12.25
2023-02-14T15:20:29.667Z,12.98
2023-02-14T15:23:02.944Z,12.75
2023-02-14T15:25:38.682Z,11.95
2023-02-14T15:28:17.346Z,13.02
2023-02-14T15:30:57.582Z,12.55
2023-02-14T15:33:32.763Z,12.80
2023-02-14T15:36:09.356Z,13.65
2023-02-14T15:38:43.123Z,12.43
2023-02-14T15:41:17.752Z,15.68
2023-02-14T15:43:53.835Z,15.15
2023-02-14T15:46:33.686Z,14.15
2023-02-14T15:49:11.460Z,13.95
2023-02-14T15:51:44.698Z,12.35
2023-02-14T15:54:33.290Z,13.10
2023-02-14T15:57:07.952Z,13.98
2023-02-14T15:59:43.471Z,13.30
2023-02-14T16:02:35.662Z,12.95
2023-02-14T16:05:18.297Z,12.90
2023-02-14T16:07:59.632Z,12.93
2023-02-14T16:10:34.719Z,14.18
2023-02-14T16:13:19.630Z,13.00
2023-02-14T16:15:58.483Z,13.90
2023-02-14T16:18:37.884Z,12.20
2023-02-14T16:21:17.508Z,15.32
2023-02-14T16:24:13.917Z,14.35
2023-02-14T16:26:47.694Z,13.30
2023-02-14T16:29:21.880Z,15.68
2023-02-14T16:32:14.771Z,15.07
2023-02-14T16:34:49.455Z,13.02
2023-02-14T16:37:25.609Z,14.32
2023-02-14T16:39:59.166Z,14.30
2023-02-14T16:42:32.672Z,15.25
2023-02-14T16:45:05.871Z,16.10
2023-02-14T16:47:38.614Z,14.15
2023-02-14T16:50:12.340Z,16.80
2023-02-14T16:52:50.512Z,18.15
2023-02-14T16:55:23.313Z,14.75
2023-02-14T16:57:56.110Z,19.83
2023-02-14T17:00:28.915Z,14.68
2023-02-14T17:03:07.210Z,14.05
2023-02-14T17:05:40.838Z,16.88
2023-02-14T17:08:16.391Z,20.10
2023-02-14T17:10:49.744Z,17.83
2023-02-14T17:13:25.203Z,20.38
2023-02-14T17:15:58.440Z,17.70
2023-02-14T17:18:33.597Z,20.25
2023-02-14T17:21:06.750Z,18.95
2023-02-14T17:23:40.854Z,15.65
2023-02-14T17:26:14.264Z,16.63
2023-02-14T17:28:47.444Z,19.30
2023-02-14T17:31:20.464Z,14.48
2023-02-14T17:33:53.393Z,14.52
2023-02-14T17:36:27.836Z,13.93
2023-02-14T17:39:03.270Z,14.82
2023-02-14T17:41:36.073Z,16.17
2023-02-14T17:44:08.866Z,14.77
2023-02-14T17:46:41.635Z,14.52
2023-02-14T17:49:14.519Z,15.40
2023-02-14T17:51:47.388Z,16.63
2023-02-14T17:54:21.529Z,16.17
2023-02-14T17:56:54.285Z,15.45
2023-02-14T17:59:27.036Z,15.85
2023-02-14T18:02:00.209Z,18.58
2023-02-14T18:04:34.941Z,14.70
2023-02-14T18:07:07.818Z,15.35
2023-02-14T18:09:41.916Z,16.65
2023-02-14T18:12:15.238Z,14.73
2023-02-14T18:14:48.092Z,17.77
2023-02-14T18:17:20.864Z,16.88
2023-02-14T18:19:53.887Z,17.08
2023-02-14T18:22:27.821Z,17.45
2023-02-14T18:25:02.000Z,18.15
2023-02-14T18:27:34.736Z,17.90
2023-02-14T18:30:08.904Z,20.35
2023-02-14T18:32:41.728Z,17.25
2023-02-14T18:35:15.210Z,17.05
2023-02-14T18:37:48.739Z,16.95
2023-02-14T18:40:22.966Z,16.77
2023-02-14T18:42:55.818Z,16.13
2023-02-14T18:45:28.696Z,17.23
2023-02-14T18:48:01.451Z,17.33
2023-02-14T18:50:35.286Z,18.17
2023-02-14T18:53:08.027Z,21.27
2023-02-14T18:55:42.134Z,20.08
2023-02-14T18:58:14.966Z,20.50
2023-02-14T19:00:47.747Z,24.88
2023-02-14T19:03:20.523Z,22.65
2023-02-14T19:05:53.800Z,23.02
2023-02-14T19:08:26.563Z,23.30
2023-02-14T19:11:01.160Z,20.63
2023-02-14T19:13:34.043Z,18.80
2023-02-14T19:16:12.268Z,18.55
2023-02-14T19:18:45.336Z,17.13
2023-02-14T19:21:20.255Z,18.60
2023-02-14T19:23:56.041Z,19.10
2023-02-14T19:26:32.888Z,23.00
2023-02-14T19:29:07.904Z,20.25
2023-02-14T19:31:43.093Z,18.30
2023-02-14T19:34:18.298Z,18.13
2023-02-14T19:36:52.735Z,19.42
2023-02-14T19:39:25.868Z,21.15
2023-02-14T19:42:00.478Z,19.50
2023-02-14T19:44:33.342Z,18.67
2023-02-14T19:47:23.343Z,16.98
2023-02-14T19:49:59.126Z,18.38
2023-02-14T19:52:32.174Z,20.63
2023-02-14T19:55:05.256Z,20.08
2023-02-14T19:57:41.080Z,18.35
2023-02-14T20:00:16.105Z,19.70
2023-02-14T20:02:49.224Z,19.48
2023-02-14T20:05:25.155Z,20.50
2023-02-14T20:07:58.431Z,18.63
2023-02-14T20:10:31.317Z,18.48
2023-02-14T20:13:05.477Z,18.73
2023-02-14T20:15:39.939Z,19.27
2023-02-14T20:18:15.838Z,19.35
2023-02-14T20:21:03.203Z,18.77
2023-02-14T20:23:36.104Z,16.50
2023-02-14T20:26:13.154Z,17.13
2023-02-14T20:28:50.904Z,17.77
2023-02-14T20:31:23.869Z,19.80
2023-02-14T20:33:56.902Z,18.35
2023-02-14T20:36:29.875Z,16.50
2023-02-14T20:39:07.181Z,17.73
2023-02-14T20:41:43.809Z,20.05
2023-02-14T20:44:21.627Z,19.52
2023-02-14T20:46:56.532Z,18.50
2023-02-14T20:49:32.687Z,19.88
2023-02-14T20:52:06.086Z,19.77
2023-02-14T20:54:40.077Z,20.63
2023-02-14T20:57:13.036Z,19.42
2023-02-14T20:59:47.339Z,18.33
2023-02-14T21:02:20.583Z,19.33
2023-02-14T21:04:53.690Z,20.10
2023-02-14T21:07:30.719Z,19.80
2023-02-14T21:10:03.716Z,20.85
2023-02-14T21:12:38.591Z,22.15
2023-02-14T21:15:15.705Z,21.33
2023-02-14T21:17:48.813Z,19.90
2023-02-14T21:20:22.814Z,20.23
2023-02-14T21:22:57.262Z,19.20
2023-02-14T21:25:31.350Z,19.15
2023-02-14T21:28:04.213Z,17.40
2023-02-14T21:30:38.416Z,17.33
2023-02-14T21:33:11.201Z,18.17
2023-02-14T21:35:49.306Z,19.10
2023-02-14T21:38:24.492Z,20.40
2023-02-14T21:41:04.243Z,17.52
2023-02-14T21:43:38.877Z,20.23
2023-02-14T21:46:15.971Z,19.63
2023-02-14T21:49:06.151Z,21.38
2023-02-14T21:51:41.861Z,20.00
2023-02-14T21:54:15.335Z,22.27
2023-02-14T21:56:49.167Z,20.50
2023-02-14T21:59:30.169Z,19.23
2023-02-14T22:02:04.955Z,19.13
2023-02-14T22:04:38.098Z,19.40
2023-02-14T22:07:10.882Z,18.30
2023-02-14T22:09:43.591Z,19.33
2023-02-14T22:12:16.393Z,18.95
2023-02-14T22:14:49.185Z,19.02
2023-02-14T22:17:23.330Z,17.92
2023-02-14T22:19:56.077Z,17.55
2023-02-14T22:22:28.815Z,17.83
2023-02-14T22:25:01.818Z,18.58
2023-02-14T22:27:39.181Z,17.50
2023-02-14T22:30:12.563Z,17.05
2023-02-14T22:32:46.693Z,19.02
2023-02-14T22:35:19.518Z,17.30
2023-02-14T22:37:52.285Z,16.63
2023-02-14T22:40:25.086Z,16.73
2023-02-14T22:42:58.000Z,17.55
2023-02-14T22:45:30.781Z,17.48
2023-02-14T22:48:05.351Z,16.50
2023-02-14T22:50:38.291Z,16.38
2023-02-14T22:53:11.035Z,16.55
2023-02-14T22:55:43.810Z,16.95
2023-02-14T22:58:16.680Z,16.58
2023-02-14T23:00:49.410Z,16.45
2023-02-14T23:03:23.646Z,14.95
2023-02-14T23:05:57.193Z,16.20
2023-02-14T23:08:29.928Z,17.10
2023-02-14T23:11:08.156Z,17.13
2023-02-14T23:13:58.504Z,16.92
2023-02-14T23:22:19.464Z,15.55
2023-02-14T23:24:53.689Z,15.10
2023-02-14T23:27:30.965Z,15.57
2023-02-14T23:30:05.383Z,15.43
2023-02-14T23:32:38.406Z,16.27
2023-02-14T23:35:12.602Z,15.32
2023-02-14T23:37:45.431Z,16.00
2023-02-14T23:40:18.537Z,17.58
2023-02-14T23:42:54.035Z,14.95
2023-02-14T23:45:35.933Z,17.30
2023-02-14T23:48:08.710Z,15.52
2023-02-14T23:50:42.823Z,16.33
2023-02-14T23:53:16.097Z,14.15
2023-02-14T23:55:48.987Z,13.93
2023-02-14T23:58:21.734Z,13.75
